Verdun, Canada
Current Conditions -  °F | °C
As of 7:00 AM on Thursday 29 Jan 2015 (Local Time) from CYHU Reporting Station
Clear Clear  
Wind Chill:   Ceiling: Unl
Heat Index:   Visibility: 9mi
Dew Point: -6°   Wind: 3mph
Humidity: 72%   Direction: 130°SE
Pressure: 30.3"   Gusts: NA
Location:  45.46°N, 73.57°W
Report Text: CYHU 291200Z AUTO 13003KT 9SM CLR M17/M21 A3030 RMK SLP264
Loading
Personal Weather Stations






























Interactive Weather Map New forecast layout! Learn more

10-Day Weather Forecast

Advertisements
Track Severe Weather on mobile